Time;durP1;ratioP1;P1;durP2;ratioP2;P2;SDS_P1;SDS_P2;PMS_P1;PMS_P2;Temp;Humidity;BMP_temperature;BMP_pressure;BME280_temperature;BME280_humidity;BME280_pressure;Samples;Min_cycle;Max_cycle;Signal;HPM_P1;HPM_P2
2022/06/22 00:00:20;;;;;;;;;;;;;;;34.50;22.19;100629.59;4438379;32;19952;-70
2022/06/22 00:02:50;;;;;;;;;;;;;;;34.52;22.15;100626.84;4439465;32;20058;-70
2022/06/22 00:05:19;;;;;;;;;;;;;;;34.54;22.18;100627.00;4440769;32;19989;-70
2022/06/22 00:07:49;;;;;;;;;;;;;;;34.40;22.35;100638.34;4439958;32;20294;-70
2022/06/22 00:10:19;;;;;;;;;;;;;;;34.31;22.39;100639.03;4443003;32;19957;-70
2022/06/22 00:12:48;;;;;;;;;;;;;;;34.40;22.26;100638.34;4438689;32;20602;-70
2022/06/22 00:15:34;;;;;;;;;;;;;;;34.16;22.55;100639.25;4437642;32;20537;-70
2022/06/22 00:18:01;;;;;;;;;;;;;;;34.16;22.62;100633.41;4438236;32;19961;-70
2022/06/22 00:20:28;;;;;;;;;;;;;;;34.20;22.50;100639.59;4437172;32;19961;-70
2022/06/22 00:22:57;;;;;;;;;;;;;;;34.24;22.45;100637.75;4442479;32;20354;-70
2022/06/22 00:28:26;;;;;;;;;;;;;;;34.58;22.45;100630.25;3972436;31;15716998;-70
2022/06/22 00:30:58;;;;;;;;;;;;;;;34.58;22.45;100630.25;4449325;32;20505;-70
2022/06/22 00:33:23;;;;;;;;;;;;;;;34.04;22.78;100626.59;4448956;32;19975;-70
2022/06/22 00:36:08;;;;;;;;;;;;;;;33.97;22.84;100628.25;4448154;32;19961;-69
2022/06/22 00:38:34;;;;;;;;;;;;;;;33.87;22.91;100632.50;4451163;32;20451;-69
2022/06/22 00:41:02;;;;;;;;;;;;;;;33.77;22.95;100628.69;4449018;32;19996;-70
2022/06/22 00:43:46;;;;;;;;;;;;;;;33.96;22.77;100623.03;4451126;32;20117;-70
2022/06/22 00:46:30;;;;;;;;;;;;;;;33.87;22.91;100627.41;4450642;32;20049;-70
2022/06/22 00:48:56;;;;;;;;;;;;;;;33.65;23.21;100622.63;4449956;32;19953;-69
2022/06/22 00:51:26;;;;;;;;;;;;;;;33.89;23.01;100629.72;4448605;32;19976;-70
2022/06/22 00:53:54;;;;;;;;;;;;;;;33.73;23.22;100617.47;4447795;32;20012;-70
2022/06/22 00:56:40;;;;;;;;;;;;;;;33.73;23.22;100613.78;4450877;32;20012;-70
2022/06/22 00:59:18;;;;;;;;;;;;;;;33.94;22.92;100617.78;4449630;32;20346;-70
2022/06/22 01:01:49;;;;;;;;;;;;;;;33.81;23.10;100609.38;4449882;32;20008;-70
2022/06/22 01:04:21;;;;;;;;;;;;;;;33.75;23.12;100605.19;4448134;32;19948;-69
2022/06/22 01:09:40;;;;;;;;;;;;;;;33.97;23.28;100619.50;3949850;32;15723594;-70
2022/06/22 01:12:25;;;;;;;;;;;;;;;33.97;23.28;100619.50;4427950;32;20347;-70
2022/06/22 01:17:37;;;;;;;;;;;;;;;33.57;23.59;100597.84;3942613;32;15722601;-69
2022/06/22 01:27:52;;;;;;;;;;;;;;;33.26;24.10;100585.78;3955684;32;15721876;-69
2022/06/22 01:32:55;;;;;;;;;;;;;;;33.29;24.24;100598.38;3949339;32;15723552;-70
2022/06/22 01:35:24;;;;;;;;;;;;;;;33.29;24.24;100598.38;4417092;32;20302;-68
2022/06/22 01:37:49;;;;;;;;;;;;;;;32.82;24.58;100593.59;4428562;32;20008;-70
2022/06/22 01:40:17;;;;;;;;;;;;;;;32.79;24.57;100599.87;4429626;32;19989;-69
2022/06/22 01:45:26;;;;;;;;;;;;;;;33.07;24.57;100600.16;3957770;32;15735486;-69
2022/06/22 01:47:54;;;;;;;;;;;;;;;33.07;24.57;100600.16;4426887;32;19996;-70
2022/06/22 01:50:23;;;;;;;;;;;;;;;32.67;24.81;100600.34;4429019;32;20291;-69
2022/06/22 02:00:38;;;;;;;;;;;;;;;32.95;24.61;100592.53;3949925;32;15724567;-70
2022/06/22 02:03:21;;;;;;;;;;;;;;;32.67;24.67;100598.81;4427631;32;19965;-70
2022/06/22 02:05:58;;;;;;;;;;;;;;;32.69;24.97;100591.03;4428092;32;20632;-70
2022/06/22 02:11:04;;;;;;;;;;;;;;;32.89;24.81;100589.87;3950448;32;15723483;-70
2022/06/22 02:16:13;;;;;;;;;;;;;;;32.96;24.79;100585.31;3950388;32;15726448;-70
2022/06/22 02:18:43;;;;;;;;;;;;;;;32.96;24.79;100585.31;4427229;32;20287;-70
2022/06/22 02:21:15;;;;;;;;;;;;;;;32.47;25.20;100589.09;4431163;32;20578;-70
2022/06/22 02:23:41;;;;;;;;;;;;;;;32.40;25.38;100584.88;4428549;32;20041;-70
2022/06/22 02:28:43;;;;;;;;;;;;;;;32.63;25.18;100589.75;3953104;32;15726493;-70
2022/06/22 02:31:09;;;;;;;;;;;;;;;32.63;25.18;100589.75;4434932;32;20397;-70
2022/06/22 02:33:37;;;;;;;;;;;;;;;32.07;25.69;100573.84;4430136;32;19961;-70
2022/06/22 02:36:03;;;;;;;;;;;;;;;31.88;25.84;100571.47;4429417;32;20433;-70
2022/06/22 02:38:29;;;;;;;;;;;;;;;31.94;25.52;100565.41;4427470;32;20324;-70
2022/06/22 02:46:32;;;;;;;;;;;;;;;31.78;25.95;100575.59;4432483;32;20043;-69
2022/06/22 02:49:00;;;;;;;;;;;;;;;31.77;25.80;100580.63;4431910;32;19988;-69
2022/06/22 02:51:29;;;;;;;;;;;;;;;31.66;26.15;100574.50;4429765;32;20012;-69
2022/06/22 02:53:57;;;;;;;;;;;;;;;31.71;26.18;100577.16;4430568;32;19961;-70
2022/06/22 02:56:25;;;;;;;;;;;;;;;31.68;26.30;100566.72;4433967;32;19997;-69
2022/06/22 02:58:51;;;;;;;;;;;;;;;31.44;26.51;100561.59;4431380;32;20347;-69
2022/06/22 03:01:17;;;;;;;;;;;;;;;31.37;26.42;100571.12;4430672;32;19994;-70
2022/06/22 03:03:46;;;;;;;;;;;;;;;31.22;26.63;100559.53;4431390;32;21344;-70
2022/06/22 03:06:13;;;;;;;;;;;;;;;30.99;26.71;100553.03;4433173;32;19961;-70
2022/06/22 03:08:39;;;;;;;;;;;;;;;31.09;26.45;100562.69;4431177;32;19949;-69
2022/06/22 03:11:06;;;;;;;;;;;;;;;31.08;26.57;100560.38;4433678;32;20596;-70
2022/06/22 03:16:13;;;;;;;;;;;;;;;31.25;26.49;100575.03;3949918;32;15722580;-70
2022/06/22 03:18:40;;;;;;;;;;;;;;;30.79;26.89;100577.31;4427371;32;19980;-69
2022/06/22 03:21:07;;;;;;;;;;;;;;;30.77;26.91;100577.88;4429415;32;20004;-70
2022/06/22 03:26:18;;;;;;;;;;;;;;;31.34;26.53;100578.12;3950081;32;15724322;-69
2022/06/22 03:28:47;;;;;;;;;;;;;;;31.34;26.53;100578.12;4429284;32;19990;-69
2022/06/22 03:31:18;;;;;;;;;;;;;;;30.70;27.10;100575.75;4427855;32;20366;-69
2022/06/22 03:33:51;;;;;;;;;;;;;;;30.71;26.98;100577.28;4427483;32;19988;-69
2022/06/22 03:36:19;;;;;;;;;;;;;;;30.90;26.97;100576.13;4428477;32;20012;-69
2022/06/22 03:38:49;;;;;;;;;;;;;;;31.04;26.78;100568.72;4428965;32;19992;-69
2022/06/22 03:41:17;;;;;;;;;;;;;;;30.87;26.95;100575.16;4429091;32;19993;-69
2022/06/22 03:43:51;;;;;;;;;;;;;;;30.85;27.17;100580.78;4427757;32;20005;-69
2022/06/22 03:46:21;;;;;;;;;;;;;;;30.64;27.48;100578.06;4429613;32;19993;-69
2022/06/22 03:48:52;;;;;;;;;;;;;;;30.54;27.47;100585.06;4427760;32;20531;-69
2022/06/22 03:51:22;;;;;;;;;;;;;;;30.70;27.14;100590.28;4431712;32;20303;-69
2022/06/22 03:56:32;;;;;;;;;;;;;;;31.15;26.66;100588.63;3951126;32;15724512;-69
2022/06/22 03:58:58;;;;;;;;;;;;;;;31.15;26.66;100588.63;4427477;32;19993;-69
2022/06/22 04:01:24;;;;;;;;;;;;;;;30.75;27.13;100591.47;4426595;32;20335;-69
2022/06/22 04:03:52;;;;;;;;;;;;;;;30.76;27.25;100584.28;4426071;32;20042;-69
2022/06/22 04:06:27;;;;;;;;;;;;;;;30.84;26.98;100587.97;4429875;32;20327;-69
2022/06/22 04:08:53;;;;;;;;;;;;;;;30.78;27.00;100596.09;4424894;32;19975;-69
2022/06/22 04:11:25;;;;;;;;;;;;;;;30.65;27.28;100593.37;4429409;32;20339;-69
2022/06/22 04:13:55;;;;;;;;;;;;;;;30.54;27.38;100600.38;4427006;32;19985;-69
2022/06/22 04:16:22;;;;;;;;;;;;;;;30.48;27.16;100601.91;4427507;32;19996;-69
2022/06/22 04:18:52;;;;;;;;;;;;;;;30.65;27.28;100593.37;4426414;32;19996;-69
2022/06/22 04:21:22;;;;;;;;;;;;;;;30.79;27.02;100595.53;4428260;32;20306;-69
2022/06/22 04:23:57;;;;;;;;;;;;;;;30.58;27.36;100605.75;4425928;32;19969;-69
2022/06/22 04:29:03;;;;;;;;;;;;;;;31.14;26.71;100595.81;3950489;32;15726586;-68
2022/06/22 04:31:31;;;;;;;;;;;;;;;31.14;26.71;100595.81;4425480;32;20000;-68
2022/06/22 04:34:01;;;;;;;;;;;;;;;30.92;26.89;100599.56;4426532;32;19969;-69
2022/06/22 04:36:33;;;;;;;;;;;;;;;31.01;26.50;100598.97;4426553;32;20469;-68
2022/06/22 04:39:02;;;;;;;;;;;;;;;30.91;26.85;100592.19;4427643;32;20034;-68
2022/06/22 04:41:31;;;;;;;;;;;;;;;30.99;26.72;100585.03;4428776;32;20388;-68
2022/06/22 04:44:00;;;;;;;;;;;;;;;31.13;26.49;100579.75;4427116;32;20038;-69
2022/06/22 04:46:28;;;;;;;;;;;;;;;31.24;26.34;100583.00;4424239;32;20015;-69
2022/06/22 04:48:56;;;;;;;;;;;;;;;31.27;26.31;100578.12;4426847;32;20007;-69
2022/06/22 04:51:27;;;;;;;;;;;;;;;31.33;26.37;100587.44;4427991;32;20287;-69
2022/06/22 04:53:56;;;;;;;;;;;;;;;31.29;26.40;100587.84;4426932;32;20319;-69
2022/06/22 04:56:39;;;;;;;;;;;;;;;31.27;26.42;100583.94;4428644;32;19973;-69
2022/06/22 04:59:06;;;;;;;;;;;;;;;31.60;26.27;100594.31;4427720;32;20380;-69
2022/06/22 05:01:43;;;;;;;;;;;;;;;31.67;26.28;100587.66;4427663;32;20271;-69
2022/06/22 05:04:20;;;;;;;;;;;;;;;31.68;26.37;100592.91;4425433;32;19989;-69
2022/06/22 05:09:33;;;;;;;;;;;;;;;32.38;25.64;100615.97;3969985;31;15798507;-70
2022/06/22 05:12:00;;;;;;;;;;;;;;;32.38;25.64;100615.97;4447225;32;19956;-70
2022/06/22 05:14:27;;;;;;;;;;;;;;;32.05;25.66;100605.69;4449109;32;19957;-70
2022/06/22 05:16:57;;;;;;;;;;;;;;;31.96;25.74;100615.84;4450697;32;19964;-70
2022/06/22 05:19:26;;;;;;;;;;;;;;;31.93;26.01;100610.41;4447996;32;20426;-70
2022/06/22 05:21:51;;;;;;;;;;;;;;;32.31;25.64;100616.78;4449144;32;19997;-70
2022/06/22 05:26:56;;;;;;;;;;;;;;;33.03;24.71;100620.25;3951508;32;15726348;-68
2022/06/22 05:29:26;;;;;;;;;;;;;;;33.03;24.71;100620.25;4413834;32;20135;-68
2022/06/22 05:31:55;;;;;;;;;;;;;;;32.79;25.10;100623.94;4427880;32;19953;-70
2022/06/22 05:34:24;;;;;;;;;;;;;;;32.76;25.14;100630.97;4425835;32;20000;-70
2022/06/22 05:36:53;;;;;;;;;;;;;;;33.05;24.80;100632.09;4428548;32;19997;-70
2022/06/22 05:39:19;;;;;;;;;;;;;;;32.77;25.06;100635.44;4424330;32;20189;-70
2022/06/22 05:41:46;;;;;;;;;;;;;;;33.14;25.05;100633.53;4428286;32;19957;-70
2022/06/22 05:44:13;;;;;;;;;;;;;;;33.21;24.92;100644.34;4425733;32;19980;-71
2022/06/22 05:46:40;;;;;;;;;;;;;;;33.33;24.69;100640.31;4427309;32;19957;-70
2022/06/22 05:49:08;;;;;;;;;;;;;;;33.28;24.73;100643.50;4424508;32;19962;-69
2022/06/22 05:54:28;;;;;;;;;;;;;;;33.53;24.65;100635.44;3949596;32;15722590;-70
2022/06/22 05:57:02;;;;;;;;;;;;;;;33.30;24.88;100641.53;4431480;32;19989;-70
2022/06/22 05:59:45;;;;;;;;;;;;;;;33.20;25.01;100636.97;4430539;32;20472;-70
2022/06/22 06:02:19;;;;;;;;;;;;;;;33.48;24.53;100642.31;4427065;32;20400;-70
2022/06/22 06:04:48;;;;;;;;;;;;;;;33.67;24.38;100642.47;4432224;32;19953;-70
2022/06/22 06:07:18;;;;;;;;;;;;;;;33.63;24.39;100656.72;4431934;32;20108;-70
2022/06/22 06:09:44;;;;;;;;;;;;;;;33.96;23.96;100647.13;4430891;32;20007;-70
2022/06/22 06:12:13;;;;;;;;;;;;;;;33.83;24.24;100643.78;4428529;32;20374;-70
2022/06/22 06:14:41;;;;;;;;;;;;;;;33.72;24.34;100642.22;4430882;32;20308;-70
2022/06/22 06:17:10;;;;;;;;;;;;;;;33.39;24.62;100640.09;4429321;32;20440;-70
2022/06/22 06:19:38;;;;;;;;;;;;;;;33.96;24.23;100655.16;4429504;32;19969;-70
2022/06/22 06:22:04;;;;;;;;;;;;;;;33.44;24.84;100645.66;4429430;32;19953;-70
2022/06/22 06:27:43;;;;;;;;;;;;;;;34.88;23.34;100641.44;3946159;32;15728576;-69
2022/06/22 06:30:02;;;;;;;;;;;;;;;34.88;23.34;100641.44;4425879;32;20294;-70
2022/06/22 06:35:16;;;;;;;;;;;;;;;35.21;22.99;100657.97;3947154;32;15722594;-70
2022/06/22 06:38:01;;;;;;;;;;;;;;;35.21;22.99;100657.97;4420707;32;20049;-70
2022/06/22 06:45:56;;;;;;;;;;;;;;;35.53;22.59;100656.78;3951042;31;15716364;-70
2022/06/22 06:48:23;;;;;;;;;;;;;;;35.53;22.59;100656.78;4420398;32;20022;-69
2022/06/22 06:50:51;;;;;;;;;;;;;;;35.26;22.75;100659.81;4413829;32;19987;-69
2022/06/22 06:53:28;;;;;;;;;;;;;;;35.33;22.81;100661.03;4418845;32;19973;-69
2022/06/22 06:56:01;;;;;;;;;;;;;;;35.15;22.78;100660.41;4416396;32;19992;-68
2022/06/22 06:58:47;;;;;;;;;;;;;;;35.40;22.68;100658.00;4422433;32;20000;-68
2022/06/22 07:01:16;;;;;;;;;;;;;;;35.20;22.74;100649.78;4419338;32;20002;-68
2022/06/22 07:03:43;;;;;;;;;;;;;;;35.45;22.56;100651.06;4415820;32;20394;-68
2022/06/22 07:06:09;;;;;;;;;;;;;;;35.32;22.77;100647.81;4420646;32;20613;-69
2022/06/22 07:08:37;;;;;;;;;;;;;;;35.78;22.29;100643.34;4418024;32;20001;-69
2022/06/22 07:11:05;;;;;;;;;;;;;;;35.60;22.51;100647.84;4418443;32;19985;-69
2022/06/22 07:13:38;;;;;;;;;;;;;;;35.53;22.59;100639.22;4415217;32;19996;-68
2022/06/22 07:16:15;;;;;;;;;;;;;;;35.43;22.59;100639.22;4417795;32;20116;-68
2022/06/22 07:18:48;;;;;;;;;;;;;;;35.37;22.70;100644.59;4419915;32;20092;-68
2022/06/22 07:23:52;;;;;;;;;;;;;;;35.99;22.25;100639.78;3937204;32;15727526;-69
2022/06/22 07:31:37;;;;;;;;;;;;;;;36.48;21.63;100626.53;3948020;31;15717729;-70
2022/06/22 07:34:06;;;;;;;;;;;;;;;36.48;21.63;100626.53;4422854;32;19981;-71
2022/06/22 07:36:35;;;;;;;;;;;;;;;36.76;21.45;100629.34;4423574;32;19979;-70
2022/06/22 07:39:05;;;;;;;;;;;;;;;35.48;22.93;100625.66;4424270;32;20001;-70
2022/06/22 07:41:31;;;;;;;;;;;;;;;35.98;22.40;100608.94;4426624;32;19977;-70
2022/06/22 07:43:59;;;;;;;;;;;;;;;36.79;21.46;100603.84;4421349;32;20437;-70
2022/06/22 07:49:08;;;;;;;;;;;;;;;37.37;21.31;100614.56;3943538;32;15723534;-70
2022/06/22 07:51:35;;;;;;;;;;;;;;;37.37;21.31;100614.56;4417027;32;19977;-69
2022/06/22 07:54:04;;;;;;;;;;;;;;;36.97;21.45;100605.12;4415090;32;20519;-70
2022/06/22 07:56:42;;;;;;;;;;;;;;;36.95;21.35;100607.91;4418188;32;19953;-70
2022/06/22 07:59:10;;;;;;;;;;;;;;;36.42;21.81;100611.44;4419260;32;19994;-71
2022/06/22 08:01:38;;;;;;;;;;;;;;;36.90;21.36;100615.66;4418316;32;20736;-70
2022/06/22 08:04:06;;;;;;;;;;;;;;;37.28;21.06;100614.66;4418294;32;20395;-71
2022/06/22 08:06:35;;;;;;;;;;;;;;;37.36;21.05;100604.22;4419189;32;20001;-71
2022/06/22 08:09:06;;;;;;;;;;;;;;;37.77;20.74;100610.66;4416899;32;20234;-71
2022/06/22 08:11:51;;;;;;;;;;;;;;;37.26;21.20;100612.34;4419967;32;19976;-71
2022/06/22 08:14:28;;;;;;;;;;;;;;;37.94;20.55;100613.25;4417380;32;20035;-71
2022/06/22 08:16:57;;;;;;;;;;;;;;;38.14;20.37;100602.84;4418555;32;21475;-70
2022/06/22 08:19:27;;;;;;;;;;;;;;;37.82;20.66;100610.28;4420690;32;20054;-70
2022/06/22 08:21:54;;;;;;;;;;;;;;;37.97;20.56;100601.00;4423297;32;20029;-70
2022/06/22 08:24:25;;;;;;;;;;;;;;;38.24;20.21;100612.31;4425276;32;20613;-71
2022/06/22 08:26:54;;;;;;;;;;;;;;;38.04;20.48;100598.44;4420186;32;20006;-71
2022/06/22 08:29:23;;;;;;;;;;;;;;;38.48;19.91;100604.25;4418659;32;20035;-71
2022/06/22 08:31:56;;;;;;;;;;;;;;;38.70;19.82;100606.44;4419196;32;20218;-70
2022/06/22 08:34:28;;;;;;;;;;;;;;;38.53;19.93;100606.84;4417633;32;19997;-71
2022/06/22 08:36:57;;;;;;;;;;;;;;;38.82;19.68;100621.13;4415263;32;19985;-70
2022/06/22 08:39:29;;;;;;;;;;;;;;;38.96;19.55;100613.19;4406663;32;20348;-71
2022/06/22 08:42:02;;;;;;;;;;;;;;;38.91;19.71;100605.53;4416923;32;19980;-70
2022/06/22 08:44:36;;;;;;;;;;;;;;;38.88;19.70;100606.81;4415913;32;19996;-70
2022/06/22 08:47:08;;;;;;;;;;;;;;;38.89;19.69;100611.28;4420195;32;19998;-70
2022/06/22 08:49:43;;;;;;;;;;;;;;;39.44;19.14;100611.06;4418475;32;19997;-70
2022/06/22 08:52:28;;;;;;;;;;;;;;;38.59;20.03;100600.59;4419670;32;20012;-70
2022/06/22 08:55:05;;;;;;;;;;;;;;;39.20;19.41;100600.00;4422596;32;20005;-71
2022/06/22 09:08:21;;;;;;;;;;;;;;;40.42;18.25;100603.44;3934751;32;15723574;-71
2022/06/22 09:16:14;;;;;;;;;;;;;;;41.50;17.35;100609.28;3944192;32;15722565;-70
2022/06/22 09:24:14;;;;;;;;;;;;;;;43.71;15.42;100602.69;3943108;32;15725337;-71
2022/06/22 09:43:04;;;;;;;;;;;;;;;45.53;13.99;100596.34;3944672;32;15723513;-71
2022/06/22 09:53:57;;;;;;;;;;;;;;;44.46;14.86;100609.47;3941485;32;15727595;-71
2022/06/22 09:59:18;;;;;;;;;;;;;;;44.64;14.83;100610.19;3945130;32;15721582;-68
2022/06/22 10:02:03;;;;;;;;;;;;;;;44.64;14.83;100610.19;4420154;32;20378;-69
2022/06/22 10:07:28;;;;;;;;;;;;;;;45.68;14.15;100602.09;3958503;31;15716821;-69
2022/06/22 10:10:01;;;;;;;;;;;;;;;45.68;14.15;100602.09;4441875;32;19960;-69
2022/06/22 10:15:18;;;;;;;;;;;;;;;46.40;13.70;100598.47;3951632;32;15722536;-70
2022/06/22 10:20:30;;;;;;;;;;;;;;;46.82;13.46;100598.22;3944503;32;15724353;-68
2022/06/22 10:28:37;;;;;;;;;;;;;;;46.56;13.41;100609.41;3942552;32;15725271;-69
2022/06/22 10:36:35;;;;;;;;;;;;;;;45.06;14.62;100608.81;3944675;32;15721448;-71
2022/06/22 10:39:20;;;;;;;;;;;;;;;45.06;14.62;100608.81;4425774;32;20369;-70
2022/06/22 10:45:08;;;;;;;;;;;;;;;44.34;14.71;100600.88;4427177;32;20365;-70
2022/06/22 10:55:34;;;;;;;;;;;;;;;48.80;11.47;100608.47;3941642;32;15814211;-71
2022/06/22 10:58:19;;;;;;;;;;;;;;;48.80;11.47;100608.47;4419311;32;19961;-68
2022/06/22 11:06:12;;;;;;;;;;;;;;;47.58;12.32;100603.34;3941845;32;15723399;-70
2022/06/22 11:08:55;;;;;;;;;;;;;;;47.18;12.54;100599.25;4422923;32;20040;-70
2022/06/22 11:14:20;;;;;;;;;;;;;;;46.20;13.33;100597.88;3955517;31;15715780;-70
2022/06/22 11:16:51;;;;;;;;;;;;;;;46.20;13.33;100597.88;4436267;32;19981;-69
2022/06/22 11:31:02;;;;;;;;;;;;;;;46.14;13.56;100588.78;4420916;32;20842;-69
2022/06/22 11:44:25;;;;;;;;;;;;;;;44.17;14.60;100565.28;3942683;31;15718410;-69
2022/06/22 11:46:52;;;;;;;;;;;;;;;44.17;14.60;100565.28;4422961;32;20520;-70
2022/06/22 11:54:36;;;;;;;;;;;;;;;43.84;14.90;100556.50;3944530;32;15727544;-70
2022/06/22 11:57:21;;;;;;;;;;;;;;;43.82;14.62;100556.44;4427482;32;19961;-70
2022/06/22 12:00:01;;;;;;;;;;;;;;;43.86;14.36;100559.59;4425743;32;20012;-70
2022/06/22 12:05:24;;;;;;;;;;;;;;;44.45;14.10;100552.31;3946784;32;15725385;-70
2022/06/22 12:15:59;;;;;;;;;;;;;;;43.99;13.77;100540.84;3945100;32;15725621;-70
2022/06/22 12:21:17;;;;;;;;;;;;;;;44.33;13.68;100539.22;3943145;32;15722509;-70
2022/06/22 12:23:51;;;;;;;;;;;;;;;44.33;13.68;100539.22;4416999;32;20330;-70
2022/06/22 12:31:34;;;;;;;;;;;;;;;45.18;11.97;100543.84;3953926;31;15718425;-69
2022/06/22 12:36:38;;;;;;;;;;;;;;;46.42;11.52;100529.31;3941614;32;15723549;-70
2022/06/22 12:39:11;;;;;;;;;;;;;;;46.42;11.52;100529.31;4426261;32;19996;-70
2022/06/22 12:41:56;;;;;;;;;;;;;;;44.81;12.09;100532.13;4429146;32;20310;-70
2022/06/22 12:44:41;;;;;;;;;;;;;;;43.31;13.15;100538.72;4426221;32;19962;-70
2022/06/22 12:50:06;;;;;;;;;;;;;;;45.11;12.04;100530.25;3942525;32;15735413;-70
2022/06/22 12:52:36;;;;;;;;;;;;;;;45.11;12.04;100530.25;4420106;32;20010;-70
2022/06/22 12:55:05;;;;;;;;;;;;;;;44.16;12.99;100531.87;4419488;32;20001;-70
2022/06/22 12:57:41;;;;;;;;;;;;;;;45.34;11.59;100525.81;4422665;32;19971;-70
2022/06/22 13:00:15;;;;;;;;;;;;;;;46.12;10.64;100525.44;4421612;32;19993;-70
2022/06/22 13:02:42;;;;;;;;;;;;;;;47.30;10.38;100522.88;4418625;32;20524;-71
2022/06/22 13:07:48;;;;;;;;;;;;;;;49.05;10.00;100527.53;3943933;32;15727590;-70
2022/06/22 13:10:16;;;;;;;;;;;;;;;49.05;10.00;100527.53;4419116;32;19997;-70
2022/06/22 13:13:01;;;;;;;;;;;;;;;47.76;10.59;100532.22;4416002;32;20245;-70
2022/06/22 13:15:29;;;;;;;;;;;;;;;47.68;10.38;100526.81;4418671;32;19997;-70
2022/06/22 13:18:15;;;;;;;;;;;;;;;49.38;9.27;100532.63;4411969;32;19984;-70
2022/06/22 13:23:31;;;;;;;;;;;;;;;49.52;9.42;100532.09;3945753;32;15724737;-69
2022/06/22 13:26:03;;;;;;;;;;;;;;;49.52;9.42;100532.09;4415623;32;20019;-70
2022/06/22 13:31:22;;;;;;;;;;;;;;;50.91;8.92;100523.53;3943293;32;15722225;-70
2022/06/22 13:39:26;;;;;;;;;;;;;;;50.67;9.16;100510.53;3946769;32;15723569;-71
2022/06/22 13:44:48;;;;;;;;;;;;;;;51.98;8.00;100519.19;3940443;32;15729231;-70
2022/06/22 13:47:34;;;;;;;;;;;;;;;51.99;7.96;100516.94;4422131;32;19984;-71
2022/06/22 13:52:41;;;;;;;;;;;;;;;50.45;8.96;100498.28;3947915;32;15722509;-71
2022/06/22 13:57:49;;;;;;;;;;;;;;;50.46;9.07;100505.78;3939305;32;15724204;-70
2022/06/22 14:00:16;;;;;;;;;;;;;;;50.46;9.07;100505.78;4404860;32;20761;-70
2022/06/22 14:07:56;;;;;;;;;;;;;;;53.22;7.46;100510.56;3941923;32;15722451;-71
2022/06/22 14:10:27;;;;;;;;;;;;;;;53.22;7.46;100510.56;4418866;32;19993;-70
2022/06/22 14:13:13;;;;;;;;;;;;;;;51.23;8.52;100502.09;4419730;32;20506;-70
2022/06/22 14:15:46;;;;;;;;;;;;;;;51.40;8.22;100503.75;4419037;32;20009;-70
2022/06/22 14:21:15;;;;;;;;;;;;;;;53.31;7.73;100498.56;3943060;32;15725461;-71
2022/06/22 14:23:45;;;;;;;;;;;;;;;53.31;7.73;100498.56;4417698;32;20434;-71
2022/06/22 14:26:30;;;;;;;;;;;;;;;54.79;6.86;100513.16;4417462;32;20000;-71
2022/06/22 14:29:06;;;;;;;;;;;;;;;55.67;6.42;100502.63;4413018;32;19997;-71
2022/06/22 14:36:55;;;;;;;;;;;;;;;57.44;5.51;100519.81;3944192;32;15723716;-69
2022/06/22 14:39:28;;;;;;;;;;;;;;;57.44;5.51;100519.81;4419020;32;19996;-71
2022/06/22 14:41:58;;;;;;;;;;;;;;;56.17;6.10;100514.16;4417211;32;20037;-71
2022/06/22 14:49:46;;;;;;;;;;;;;;;58.20;5.49;100504.78;3951724;32;15723520;-70
2022/06/22 14:55:07;;;;;;;;;;;;;;;56.21;6.19;100511.09;3937886;32;15723320;-72
2022/06/22 14:57:36;;;;;;;;;;;;;;;56.21;6.19;100511.09;4396306;32;20013;-72
2022/06/22 15:02:49;;;;;;;;;;;;;;;56.01;6.19;100496.97;3942830;32;15723265;-72
2022/06/22 15:05:20;;;;;;;;;;;;;;;56.01;6.19;100496.97;4423151;32;19984;-72
2022/06/22 15:10:41;;;;;;;;;;;;;;;58.77;4.92;100502.72;3938659;32;15917605;-71
2022/06/22 15:13:27;;;;;;;;;;;;;;;58.77;4.92;100502.72;4426206;32;20031;-71
2022/06/22 15:15:57;;;;;;;;;;;;;;;57.68;5.27;100501.22;4426270;32;19992;-72
2022/06/22 15:18:31;;;;;;;;;;;;;;;58.38;5.02;100499.06;4423951;32;19958;-70
2022/06/22 15:23:43;;;;;;;;;;;;;;;59.00;4.82;100505.97;3944994;32;15724482;-70
2022/06/22 15:26:29;;;;;;;;;;;;;;;59.00;4.82;100505.97;4421832;32;20002;-70
2022/06/22 15:29:06;;;;;;;;;;;;;;;58.48;4.91;100504.16;4422552;32;19961;-70
2022/06/22 15:31:36;;;;;;;;;;;;;;;58.07;4.99;100495.91;4420808;32;19961;-70
2022/06/22 15:34:22;;;;;;;;;;;;;;;58.23;4.75;100485.00;4419412;32;20325;-71
2022/06/22 15:37:07;;;;;;;;;;;;;;;60.34;4.13;100495.41;4423479;32;20012;-71
2022/06/22 15:39:37;;;;;;;;;;;;;;;60.19;4.24;100494.34;4422487;32;20366;-71
2022/06/22 15:44:45;;;;;;;;;;;;;;;59.75;4.43;100490.31;3945593;31;15718290;-70
2022/06/22 15:47:15;;;;;;;;;;;;;;;59.75;4.43;100490.31;4412506;32;20332;-70
2022/06/22 15:52:23;;;;;;;;;;;;;;;60.19;4.21;100497.41;3947860;32;15789492;-70
2022/06/22 15:57:45;;;;;;;;;;;;;;;58.39;5.18;100485.38;3942156;32;15723550;-72
2022/06/22 16:03:07;;;;;;;;;;;;;;;58.68;4.91;100482.47;3953766;32;15724531;-71
2022/06/22 16:08:29;;;;;;;;;;;;;;;59.00;4.83;100476.34;3949316;32;15724620;-72
2022/06/22 16:13:45;;;;;;;;;;;;;;;57.12;5.72;100480.28;3948507;32;15728377;-72
2022/06/22 16:18:50;;;;;;;;;;;;;;;57.81;5.47;100480.56;3950739;32;15735556;-70
2022/06/22 16:21:34;;;;;;;;;;;;;;;57.81;5.47;100480.56;4429118;32;19992;-71
2022/06/22 16:29:35;;;;;;;;;;;;;;;59.60;4.48;100480.84;3952672;32;15724490;-71
2022/06/22 16:34:50;;;;;;;;;;;;;;;57.16;5.75;100468.13;3955935;32;15721334;-70
2022/06/22 16:37:25;;;;;;;;;;;;;;;57.16;5.75;100468.13;4429595;32;20474;-70
2022/06/22 16:39:58;;;;;;;;;;;;;;;56.66;5.85;100465.91;4428140;32;21564;-70
2022/06/22 16:45:03;;;;;;;;;;;;;;;57.22;5.64;100465.75;3968348;32;15723241;-71
2022/06/22 16:47:42;;;;;;;;;;;;;;;57.22;5.64;100465.75;4431826;32;20386;-71
2022/06/22 16:50:13;;;;;;;;;;;;;;;57.80;5.37;100469.97;4451342;32;20334;-71
2022/06/22 16:52:40;;;;;;;;;;;;;;;57.14;5.64;100459.06;4448711;32;20395;-71
2022/06/22 16:55:17;;;;;;;;;;;;;;;58.00;5.33;100466.53;4434684;32;20124;-71
2022/06/22 16:57:50;;;;;;;;;;;;;;;58.03;5.24;100477.06;4448624;32;19993;-71
2022/06/22 17:00:16;;;;;;;;;;;;;;;56.23;5.99;100463.47;4450737;32;20330;-71
2022/06/22 17:02:49;;;;;;;;;;;;;;;56.99;5.72;100457.81;4448865;32;20034;-70
2022/06/22 17:08:01;;;;;;;;;;;;;;;57.77;5.43;100454.09;3948108;32;15727627;-71
2022/06/22 17:13:04;;;;;;;;;;;;;;;57.80;5.53;100449.53;3948613;32;15726696;-70
2022/06/22 17:15:36;;;;;;;;;;;;;;;57.80;5.53;100449.53;4430025;32;20027;-70
2022/06/22 17:18:08;;;;;;;;;;;;;;;55.56;6.48;100453.69;4429372;32;20007;-70
2022/06/22 17:20:38;;;;;;;;;;;;;;;55.99;6.31;100451.69;4429381;32;20565;-71
2022/06/22 17:23:23;;;;;;;;;;;;;;;56.19;6.27;100454.44;4428539;32;20488;-70
2022/06/22 17:28:47;;;;;;;;;;;;;;;56.49;6.11;100447.22;3950338;32;15730343;-70
2022/06/22 17:31:16;;;;;;;;;;;;;;;56.49;6.11;100447.22;4434457;32;19963;-70
2022/06/22 17:39:02;;;;;;;;;;;;;;;54.27;7.02;100444.88;3936986;32;15723923;-70
2022/06/22 17:44:29;;;;;;;;;;;;;;;55.29;6.44;100449.41;3949752;32;15723732;-72
2022/06/22 17:46:58;;;;;;;;;;;;;;;55.29;6.44;100449.41;4430135;32;19985;-72
2022/06/22 17:49:26;;;;;;;;;;;;;;;53.73;6.95;100447.34;4431315;32;20023;-71
2022/06/22 17:51:55;;;;;;;;;;;;;;;53.03;7.29;100445.19;4420992;32;19957;-70
2022/06/22 17:57:03;;;;;;;;;;;;;;;54.25;6.83;100438.13;3958797;31;15716320;-70
2022/06/22 18:07:25;;;;;;;;;;;;;;;53.23;7.41;100436.13;3948366;32;15721572;-70
2022/06/22 18:09:53;;;;;;;;;;;;;;;52.94;7.55;100431.62;4433927;32;20019;-70
2022/06/22 18:12:19;;;;;;;;;;;;;;;51.48;8.29;100428.81;4433153;32;20339;-70
2022/06/22 18:14:52;;;;;;;;;;;;;;;50.61;8.71;100430.28;4431243;32;19968;-72
2022/06/22 18:17:20;;;;;;;;;;;;;;;50.72;8.67;100422.19;4432164;32;20338;-70
2022/06/22 18:19:52;;;;;;;;;;;;;;;50.32;8.92;100428.50;4434209;32;19980;-71
2022/06/22 18:24:57;;;;;;;;;;;;;;;50.01;9.17;100432.59;3950711;32;15728623;-71